AirNav   Phillips 66 Aviation Fuel
 
 1590 users online  

5GA2 Lyons Landing Airport
Whitesburg, Georgia, USA

GOING TO WHITESBURG?


FAA INFORMATION EFFECTIVE 16 AUGUST 2018

Location

FAA Identifier: 5GA2
Lat/Long: 33-34-23.3990N / 084-54-34.7830W
33-34.389983N / 084-54.579717W
33.5731664 / -84.9096619
(estimated)
Elevation: 1080 ft. / 329 m (estimated)
Variation: 01W (1985)
From city: 5 miles S of WHITESBURG, GA
Time zone: UTC -4 (UTC -5 during Standard Time)
Zip code: 30116

Airport Operations

Airport use: Private use. Permission required prior to landing
Activation date: 08/1991
Control tower: no
ARTCC: ATLANTA CENTER
FSS: MACON FLIGHT SERVICE STATION
Attendance: UNATNDD
Wind indicator: yes
Segmented circle: no

Airport Communications

WX AWOS-3 at CTJ (13 nm W): 118.175 (770-214-9667)
WX AWOS-3PT at CCO (17 nm SE): 118.975 (770-254-1617)

Nearby radio navigation aids

VOR radial/distance  VOR name  Freq  Var
ATLr267/24.0ATLANTA VORTAC116.9005W
LGCr024/34.8LAGRANGE VORTAC115.6001E
PDKr244/35.5PEACHTREE VOR/DME116.6005W
RMGr163/36.9ROME VORTAC115.4001E

 
NDB name  Hdg/Dist  Freq  Var  ID
CARROLLTON092/11.127804WGPQ --. .--. --.-
COWETA COUNTY336/21.423403WEQQ . --.- --.-
PECAT313/26.831605WFFC ..-. ..-. -.-.
CARTERSVILLE189/37.730804WEVZ . ...- --..

Airport Services

Runway Information

Runway 9/27

Dimensions: 1800 x 100 ft. / 549 x 30 m
Surface: turf
RUNWAY 9  RUNWAY 27
Traffic pattern: rightleft
Displaced threshold: 600 ft.no
Obstructions: 60 ft. trees, 200 ft. from runwaynone

Airport Ownership and Management from official FAA records

Ownership: Privately-owned
Owner: LYONS LANDING INC
400 CONSOLATION CHURCH ROAD
WHITESBURG, GA 30185
Phone 770-830-0987
Manager: JEFF LYONS
400 CONSOLATION CHURCH ROAD
WHITESBURG, GA 30185
Phone 770-830-0987

Airport Operational Statistics

Aircraft based on the field: 2
Single engine airplanes: 2
    

Instrument Procedures

There are no published instrument procedures at 5GA2.

Some nearby airports with instrument procedures:

KCTJ - West Georgia Regional Airport-O V Gray Field (13 nm W)
KCCO - Newnan Coweta County Airport (17 nm SE)
KPUJ - Paulding Northwest Atlanta Airport (20 nm N)
KFFC - Atlanta Regional Airport-Falcon Field (21 nm SE)
KFTY - Fulton County Airport-Brown Field (23 nm NE)
 
Loc | Ops | Rwys | IFR | FBO | Links
Com | Nav | Svcs | Stats | Notes


 
Area around 5GA2 (Lyons Landing Airport)
 
Road maps at: MapQuest Bing Google
 
Aerial photo
WARNING: Photo may not be current or correct
Aerial photo of 5GA2 (Lyons Landing Airport)
Do you have a better or more recent aerial photo of Lyons Landing Airport that you would like to share? If so, please send us your photo.

 
Sectional chart

 
Airport distance calculator
Flying to Lyons Landing Airport? Find the distance to fly.

From to 5GA2

Sunrise and sunset
Times for 20-Aug-2018
 Local
(UTC-4)
 Zulu
(UTC)
Morning civil twilight06:4010:40
Sunrise07:0611:06
Sunset20:2000:20
Evening civil twilight20:4600:46

Current date and time
Zulu (UTC)  20-Aug-2018 14:53:01
Local (UTC-4)  20-Aug-2018 10:53:01
 
METAR
KCTJ 
13nm W 
201430Z AUTO 00000KT 10SM BKN009 OVC015 23/22 A3014 RMK AO2 T02330215
KCCO 
17nm SE 
201435Z AUTO 22003KT 10SM OVC008 25/22 A3011 RMK AO2 T02460217
KPUJ 
20nm N 
201435Z AUTO 00000KT 7SM BKN008 OVC013 23/23 A3011 RMK AO2
KFFC 
22nm SE 
201353Z AUTO VRB03KT 10SM BKN012 25/22 A3009 RMK AO2 SLP183 T02500222
KATL 
23nm E 
201352Z 22009KT 10SM SCT015 BKN050 BKN150 25/21 A3008 RMK AO2 SLP177 T02500211
KFTY 
23nm NE 
201353Z 22006KT 10SM OVC015 24/22 A3008 RMK AO2 SLP176 T02390222
TAF
KATL 
23nm E 
201420Z 2014/2118 27008KT P6SM SCT015 BKN040 FM201600 22008KT P6SM VCSH SCT025 BKN050 TEMPO 2019/2023 3SM TSRA BKN030CB FM202300 20007KT P6SM VCSH SCT030 BKN150 FM210900 22007KT P6SM VCSH OVC009 FM211300 24009KT P6SM VCSH SCT009 BKN015 OVC030 PROB30 2115/2118 6SM TSRA SCT015 BKN035CB
KFTY 
23nm NE 
201120Z 2012/2112 22005KT P6SM OVC010 FM201300 22005KT P6SM VCSH BKN015 FM201600 22007KT P6SM VCSH SCT025 BKN050 TEMPO 2019/2023 3SM TSRA BKN030CB FM202300 20006KT P6SM VCSH SCT030 BKN150 FM210900 21006KT P6SM VCSH OVC009
KMGE 
28nm NE 
201338Z 2013/2119 23006KT 9999 BKN010 BKN060 QNH3003INS TEMPO 2013/2014 BKN008 BECMG 2014/2015 22006KT 9999 BKN015 QNH3006INS BECMG 2017/2018 21009KT 9000 -SHRA SCT020 BKN030 QNH3002INS TEMPO 2018/2023 25010G15KT 8000 -TSRA BKN025CB BECMG 2100/2101 20006KT 9999 NSW SCT030 BKN120 QNH3001INS TX29/2021Z TN23/2013Z
NOTAMs
Click for the latest NOTAMs
NOTAMs are issued by the DoD/FAA and will open in a separate window not controlled by AirNav.

 

 
 

Would you like to see your business listed on this page?

 If your business provides an interesting product or service to pilots, flight crews, aircraft, or users of the Lyons Landing Airport, you should consider listing it here.  To start the listing process, click on the button below
 
Add a business
 

Other Pages about Lyons Landing Airport

www.lyonslanding.com
 
Update a link
 
Copyright © AirNav, LLC. All rights reserved. Privacy Policy  Contact